sensor_id;sensor_type;location;lat;lon;timestamp;temperature;humidity
44487;DHT22;30191;50.908;6.962;2022-12-18T00:00:42;-1.30;99.90
44487;DHT22;30191;50.908;6.962;2022-12-18T00:03:08;-1.40;99.90
44487;DHT22;30191;50.908;6.962;2022-12-18T00:05:35;-1.40;99.90
44487;DHT22;30191;50.908;6.962;2022-12-18T00:08:01;-1.40;99.90
44487;DHT22;30191;50.908;6.962;2022-12-18T00:10:27;-1.50;99.90
44487;DHT22;30191;50.908;6.962;2022-12-18T00:12:53;-1.40;99.90
44487;DHT22;30191;50.908;6.962;2022-12-18T00:15:18;-1.40;99.90
44487;DHT22;30191;50.908;6.962;2022-12-18T00:17:44;-1.40;99.90
44487;DHT22;30191;50.908;6.962;2022-12-18T00:20:10;-1.50;99.90
44487;DHT22;30191;50.908;6.962;2022-12-18T00:22:36;-1.40;99.90
44487;DHT22;30191;50.908;6.962;2022-12-18T00:25:02;-1.50;99.90
44487;DHT22;30191;50.908;6.962;2022-12-18T00:27:27;-1.50;99.90
44487;DHT22;30191;50.908;6.962;2022-12-18T00:29:53;-1.50;99.90
44487;DHT22;30191;50.908;6.962;2022-12-18T00:32:18;-1.50;99.90
44487;DHT22;30191;50.908;6.962;2022-12-18T00:34:44;-1.50;99.90
44487;DHT22;30191;50.908;6.962;2022-12-18T00:37:10;-1.50;99.90
44487;DHT22;30191;50.908;6.962;2022-12-18T00:39:35;-1.50;99.90
44487;DHT22;30191;50.908;6.962;2022-12-18T00:42:01;-1.50;99.90
44487;DHT22;30191;50.908;6.962;2022-12-18T00:44:45;-1.50;99.90
44487;DHT22;30191;50.908;6.962;2022-12-18T00:47:10;-1.50;99.90
44487;DHT22;30191;50.908;6.962;2022-12-18T00:49:36;-1.50;99.90
44487;DHT22;30191;50.908;6.962;2022-12-18T00:52:02;-1.60;99.90
44487;DHT22;30191;50.908;6.962;2022-12-18T00:54:27;-1.60;99.90
44487;DHT22;30191;50.908;6.962;2022-12-18T00:56:53;-1.60;99.90
44487;DHT22;30191;50.908;6.962;2022-12-18T00:59:20;-1.50;99.90
44487;DHT22;30191;50.908;6.962;2022-12-18T01:01:46;-1.50;99.90
44487;DHT22;30191;50.908;6.962;2022-12-18T01:04:12;-1.50;99.90
44487;DHT22;30191;50.908;6.962;2022-12-18T01:06:38;-1.50;99.90
44487;DHT22;30191;50.908;6.962;2022-12-18T01:09:04;-1.60;99.90
44487;DHT22;30191;50.908;6.962;2022-12-18T01:11:30;-1.60;99.90
44487;DHT22;30191;50.908;6.962;2022-12-18T01:13:55;-1.60;99.90
44487;DHT22;30191;50.908;6.962;2022-12-18T01:16:21;-1.60;99.90
44487;DHT22;30191;50.908;6.962;2022-12-18T01:18:50;-1.60;99.90
44487;DHT22;30191;50.908;6.962;2022-12-18T01:21:16;-1.60;99.90
44487;DHT22;30191;50.908;6.962;2022-12-18T01:23:42;-1.60;99.90
44487;DHT22;30191;50.908;6.962;2022-12-18T01:26:13;-1.60;99.90
44487;DHT22;30191;50.908;6.962;2022-12-18T01:28:39;-1.70;99.90
44487;DHT22;30191;50.908;6.962;2022-12-18T01:33:41;-1.70;99.90
44487;DHT22;30191;50.908;6.962;2022-12-18T01:36:07;-1.70;99.90
44487;DHT22;30191;50.908;6.962;2022-12-18T01:38:33;-1.70;99.90
44487;DHT22;30191;50.908;6.962;2022-12-18T01:40:59;-1.70;99.90
44487;DHT22;30191;50.908;6.962;2022-12-18T01:46:12;-1.70;99.90
44487;DHT22;30191;50.908;6.962;2022-12-18T01:48:39;-1.70;99.90
44487;DHT22;30191;50.908;6.962;2022-12-18T01:51:06;-1.70;99.90
44487;DHT22;30191;50.908;6.962;2022-12-18T01:53:33;-1.80;99.90
44487;DHT22;30191;50.908;6.962;2022-12-18T01:55:59;-1.70;99.90
44487;DHT22;30191;50.908;6.962;2022-12-18T02:01:01;-1.80;99.90
44487;DHT22;30191;50.908;6.962;2022-12-18T02:03:27;-1.80;99.90
44487;DHT22;30191;50.908;6.962;2022-12-18T02:08:47;-1.80;99.90
44487;DHT22;30191;50.908;6.962;2022-12-18T02:19:40;-1.80;99.90
44487;DHT22;30191;50.908;6.962;2022-12-18T02:28:00;-1.80;99.90
44487;DHT22;30191;50.908;6.962;2022-12-18T02:30:29;-1.70;99.90
44487;DHT22;30191;50.908;6.962;2022-12-18T02:32:58;-1.80;99.90
44487;DHT22;30191;50.908;6.962;2022-12-18T02:35:27;-1.80;99.90
44487;DHT22;30191;50.908;6.962;2022-12-18T02:37:55;-1.80;99.90
44487;DHT22;30191;50.908;6.962;2022-12-18T02:40:23;-1.80;99.90
44487;DHT22;30191;50.908;6.962;2022-12-18T02:42:49;-1.80;99.90
44487;DHT22;30191;50.908;6.962;2022-12-18T02:45:15;-1.80;99.90
44487;DHT22;30191;50.908;6.962;2022-12-18T02:47:43;-1.80;99.90
44487;DHT22;30191;50.908;6.962;2022-12-18T02:50:45;-1.80;99.90
44487;DHT22;30191;50.908;6.962;2022-12-18T02:56:08;-1.80;99.90
44487;DHT22;30191;50.908;6.962;2022-12-18T03:01:36;-1.90;99.90
44487;DHT22;30191;50.908;6.962;2022-12-18T03:04:14;-1.80;99.90
44487;DHT22;30191;50.908;6.962;2022-12-18T03:06:44;-1.90;99.90
44487;DHT22;30191;50.908;6.962;2022-12-18T03:09:28;-1.90;99.90
44487;DHT22;30191;50.908;6.962;2022-12-18T03:12:02;-1.80;99.90
44487;DHT22;30191;50.908;6.962;2022-12-18T03:14:47;-1.80;99.90
44487;DHT22;30191;50.908;6.962;2022-12-18T03:17:17;-1.90;99.90
44487;DHT22;30191;50.908;6.962;2022-12-18T03:19:45;-1.90;99.90
44487;DHT22;30191;50.908;6.962;2022-12-18T03:22:12;-1.90;99.90
44487;DHT22;30191;50.908;6.962;2022-12-18T03:24:39;-1.90;99.90
44487;DHT22;30191;50.908;6.962;2022-12-18T03:27:09;-1.90;99.90
44487;DHT22;30191;50.908;6.962;2022-12-18T03:29:46;-1.90;99.90
44487;DHT22;30191;50.908;6.962;2022-12-18T03:32:20;-1.80;99.90
44487;DHT22;30191;50.908;6.962;2022-12-18T03:34:51;-1.80;99.90
44487;DHT22;30191;50.908;6.962;2022-12-18T03:37:19;-1.80;99.90
44487;DHT22;30191;50.908;6.962;2022-12-18T03:39:44;-1.90;99.90
44487;DHT22;30191;50.908;6.962;2022-12-18T03:42:31;-1.90;99.90
44487;DHT22;30191;50.908;6.962;2022-12-18T03:45:20;-1.90;99.90
44487;DHT22;30191;50.908;6.962;2022-12-18T03:50:48;-1.90;99.90
44487;DHT22;30191;50.908;6.962;2022-12-18T03:53:36;-2.00;99.90
44487;DHT22;30191;50.908;6.962;2022-12-18T03:56:04;-2.00;99.90
44487;DHT22;30191;50.908;6.962;2022-12-18T03:58:31;-1.90;99.90
44487;DHT22;30191;50.908;6.962;2022-12-18T04:01:01;-1.90;99.90
44487;DHT22;30191;50.908;6.962;2022-12-18T04:03:29;-1.90;99.90
44487;DHT22;30191;50.908;6.962;2022-12-18T04:05:57;-1.90;99.90
44487;DHT22;30191;50.908;6.962;2022-12-18T04:08:24;-1.90;99.90
44487;DHT22;30191;50.908;6.962;2022-12-18T04:10:51;-2.00;99.90
44487;DHT22;30191;50.908;6.962;2022-12-18T04:13:24;-2.00;99.90
44487;DHT22;30191;50.908;6.962;2022-12-18T04:15:50;-2.00;99.90
44487;DHT22;30191;50.908;6.962;2022-12-18T04:18:16;-2.00;99.90
44487;DHT22;30191;50.908;6.962;2022-12-18T04:20:41;-2.00;99.90
44487;DHT22;30191;50.908;6.962;2022-12-18T04:23:07;-2.00;99.90
44487;DHT22;30191;50.908;6.962;2022-12-18T04:25:33;-2.10;99.90
44487;DHT22;30191;50.908;6.962;2022-12-18T04:27:58;-2.10;99.90
44487;DHT22;30191;50.908;6.962;2022-12-18T04:30:24;-2.10;99.90
44487;DHT22;30191;50.908;6.962;2022-12-18T04:32:49;-2.20;99.90
44487;DHT22;30191;50.908;6.962;2022-12-18T04:35:15;-2.20;99.90
44487;DHT22;30191;50.908;6.962;2022-12-18T04:37:41;-2.30;99.90
44487;DHT22;30191;50.908;6.962;2022-12-18T04:40:07;-2.30;99.90
44487;DHT22;30191;50.908;6.962;2022-12-18T04:42:32;-2.30;99.90
44487;DHT22;30191;50.908;6.962;2022-12-18T04:44:58;-2.30;99.90
44487;DHT22;30191;50.908;6.962;2022-12-18T04:47:24;-2.30;99.90
44487;DHT22;30191;50.908;6.962;2022-12-18T04:49:49;-2.30;99.90
44487;DHT22;30191;50.908;6.962;2022-12-18T04:52:15;-2.30;99.90
44487;DHT22;30191;50.908;6.962;2022-12-18T04:54:41;-2.40;99.90
44487;DHT22;30191;50.908;6.962;2022-12-18T04:57:06;-2.30;99.90
44487;DHT22;30191;50.908;6.962;2022-12-18T04:59:32;-2.40;99.90
44487;DHT22;30191;50.908;6.962;2022-12-18T05:01:58;-2.30;99.90
44487;DHT22;30191;50.908;6.962;2022-12-18T05:04:23;-2.30;99.90
44487;DHT22;30191;50.908;6.962;2022-12-18T05:06:49;-2.40;99.90
44487;DHT22;30191;50.908;6.962;2022-12-18T05:09:14;-2.40;99.90
44487;DHT22;30191;50.908;6.962;2022-12-18T05:11:40;-2.30;99.90
44487;DHT22;30191;50.908;6.962;2022-12-18T05:14:06;-2.40;99.90
44487;DHT22;30191;50.908;6.962;2022-12-18T05:16:31;-2.40;99.90
44487;DHT22;30191;50.908;6.962;2022-12-18T05:18:57;-2.40;99.90
44487;DHT22;30191;50.908;6.962;2022-12-18T05:21:22;-2.40;99.90
44487;DHT22;30191;50.908;6.962;2022-12-18T05:23:48;-2.40;99.90
44487;DHT22;30191;50.908;6.962;2022-12-18T05:26:17;-2.40;99.90
44487;DHT22;30191;50.908;6.962;2022-12-18T05:28:43;-2.40;99.90
44487;DHT22;30191;50.908;6.962;2022-12-18T05:31:09;-2.40;99.90
44487;DHT22;30191;50.908;6.962;2022-12-18T05:33:35;-2.40;99.90
44487;DHT22;30191;50.908;6.962;2022-12-18T05:36:02;-2.40;99.90
44487;DHT22;30191;50.908;6.962;2022-12-18T05:38:30;-2.40;99.90
44487;DHT22;30191;50.908;6.962;2022-12-18T05:40:56;-2.40;99.90
44487;DHT22;30191;50.908;6.962;2022-12-18T05:43:22;-2.40;99.90
44487;DHT22;30191;50.908;6.962;2022-12-18T05:45:49;-2.40;99.90
44487;DHT22;30191;50.908;6.962;2022-12-18T05:48:15;-2.40;99.90
44487;DHT22;30191;50.908;6.962;2022-12-18T05:50:43;-2.40;99.90
44487;DHT22;30191;50.908;6.962;2022-12-18T05:53:11;-2.40;99.90
44487;DHT22;30191;50.908;6.962;2022-12-18T05:55:38;-2.30;99.90
44487;DHT22;30191;50.908;6.962;2022-12-18T05:58:05;-2.40;99.90
44487;DHT22;30191;50.908;6.962;2022-12-18T06:00:32;-2.30;99.90
44487;DHT22;30191;50.908;6.962;2022-12-18T06:02:59;-2.40;99.90
44487;DHT22;30191;50.908;6.962;2022-12-18T06:05:25;-2.40;99.90
44487;DHT22;30191;50.908;6.962;2022-12-18T06:07:51;-2.40;99.90
44487;DHT22;30191;50.908;6.962;2022-12-18T06:10:16;-2.40;99.90
44487;DHT22;30191;50.908;6.962;2022-12-18T06:12:42;-2.40;99.90
44487;DHT22;30191;50.908;6.962;2022-12-18T06:15:08;-2.40;99.90
44487;DHT22;30191;50.908;6.962;2022-12-18T06:17:34;-2.40;99.90
44487;DHT22;30191;50.908;6.962;2022-12-18T06:20:00;-2.40;99.90
44487;DHT22;30191;50.908;6.962;2022-12-18T06:22:27;-2.40;99.90
44487;DHT22;30191;50.908;6.962;2022-12-18T06:24:52;-2.40;99.90
44487;DHT22;30191;50.908;6.962;2022-12-18T06:27:18;-2.40;99.90
44487;DHT22;30191;50.908;6.962;2022-12-18T06:29:44;-2.40;99.90
44487;DHT22;30191;50.908;6.962;2022-12-18T06:32:10;-2.50;99.90
44487;DHT22;30191;50.908;6.962;2022-12-18T06:34:37;-2.40;99.90
44487;DHT22;30191;50.908;6.962;2022-12-18T06:37:03;-2.50;99.90
44487;DHT22;30191;50.908;6.962;2022-12-18T06:39:29;-2.50;99.90
44487;DHT22;30191;50.908;6.962;2022-12-18T06:41:55;-2.50;99.90
44487;DHT22;30191;50.908;6.962;2022-12-18T06:44:20;-2.50;99.90
44487;DHT22;30191;50.908;6.962;2022-12-18T06:46:46;-2.50;99.90
44487;DHT22;30191;50.908;6.962;2022-12-18T06:49:12;-2.50;99.90
44487;DHT22;30191;50.908;6.962;2022-12-18T06:51:38;-2.50;99.90
44487;DHT22;30191;50.908;6.962;2022-12-18T06:54:03;-2.50;99.90
44487;DHT22;30191;50.908;6.962;2022-12-18T06:56:29;-2.50;99.90
44487;DHT22;30191;50.908;6.962;2022-12-18T06:58:55;-2.50;99.90
44487;DHT22;30191;50.908;6.962;2022-12-18T07:01:21;-2.50;99.90
44487;DHT22;30191;50.908;6.962;2022-12-18T07:03:52;-2.50;99.90
44487;DHT22;30191;50.908;6.962;2022-12-18T07:06:20;-2.60;99.90
44487;DHT22;30191;50.908;6.962;2022-12-18T07:08:47;-2.50;99.90
44487;DHT22;30191;50.908;6.962;2022-12-18T07:11:14;-2.50;99.90
44487;DHT22;30191;50.908;6.962;2022-12-18T07:13:39;-2.50;99.90
44487;DHT22;30191;50.908;6.962;2022-12-18T07:16:07;-2.60;99.90
44487;DHT22;30191;50.908;6.962;2022-12-18T07:18:33;-2.50;99.90
44487;DHT22;30191;50.908;6.962;2022-12-18T07:21:06;-2.50;99.90
44487;DHT22;30191;50.908;6.962;2022-12-18T07:23:33;-2.60;99.90
44487;DHT22;30191;50.908;6.962;2022-12-18T07:26:11;-2.50;99.90
44487;DHT22;30191;50.908;6.962;2022-12-18T07:28:38;-2.50;99.90
44487;DHT22;30191;50.908;6.962;2022-12-18T07:31:15;-2.50;99.90
44487;DHT22;30191;50.908;6.962;2022-12-18T07:33:41;-2.50;99.90
44487;DHT22;30191;50.908;6.962;2022-12-18T07:36:08;-2.50;99.90
44487;DHT22;30191;50.908;6.962;2022-12-18T07:38:35;-2.50;99.90
44487;DHT22;30191;50.908;6.962;2022-12-18T07:41:09;-2.50;99.90
44487;DHT22;30191;50.908;6.962;2022-12-18T07:43:35;-2.50;99.90
44487;DHT22;30191;50.908;6.962;2022-12-18T07:46:01;-2.50;99.90
44487;DHT22;30191;50.908;6.962;2022-12-18T07:48:28;-2.50;99.90
44487;DHT22;30191;50.908;6.962;2022-12-18T07:50:58;-2.50;99.90
44487;DHT22;30191;50.908;6.962;2022-12-18T07:53:24;-2.50;99.90
44487;DHT22;30191;50.908;6.962;2022-12-18T07:55:57;-2.40;99.90
44487;DHT22;30191;50.908;6.962;2022-12-18T07:58:23;-2.40;99.90
44487;DHT22;30191;50.908;6.962;2022-12-18T08:00:49;-2.40;99.90
44487;DHT22;30191;50.908;6.962;2022-12-18T08:03:15;-2.40;99.90
44487;DHT22;30191;50.908;6.962;2022-12-18T08:05:40;-2.40;99.90
44487;DHT22;30191;50.908;6.962;2022-12-18T08:08:06;-2.40;99.90
44487;DHT22;30191;50.908;6.962;2022-12-18T08:10:32;-2.40;99.90
44487;DHT22;30191;50.908;6.962;2022-12-18T08:12:57;-2.30;99.90
44487;DHT22;30191;50.908;6.962;2022-12-18T08:15:23;-2.30;99.90
44487;DHT22;30191;50.908;6.962;2022-12-18T08:17:49;-2.20;99.90
44487;DHT22;30191;50.908;6.962;2022-12-18T08:20:14;-2.20;99.90
44487;DHT22;30191;50.908;6.962;2022-12-18T08:22:41;-2.20;99.90
44487;DHT22;30191;50.908;6.962;2022-12-18T08:25:10;-2.20;99.90
44487;DHT22;30191;50.908;6.962;2022-12-18T08:27:36;-2.20;99.90
44487;DHT22;30191;50.908;6.962;2022-12-18T08:30:03;-2.10;99.90
44487;DHT22;30191;50.908;6.962;2022-12-18T08:32:29;-2.10;99.90
44487;DHT22;30191;50.908;6.962;2022-12-18T08:34:54;-2.10;99.90
44487;DHT22;30191;50.908;6.962;2022-12-18T08:37:20;-2.10;99.90
44487;DHT22;30191;50.908;6.962;2022-12-18T08:39:46;-2.10;99.90
44487;DHT22;30191;50.908;6.962;2022-12-18T08:42:11;-2.00;99.90
44487;DHT22;30191;50.908;6.962;2022-12-18T08:44:55;-2.00;99.90
44487;DHT22;30191;50.908;6.962;2022-12-18T08:47:21;-1.90;99.90
44487;DHT22;30191;50.908;6.962;2022-12-18T08:49:46;-2.00;99.90
44487;DHT22;30191;50.908;6.962;2022-12-18T08:52:12;-1.90;99.90
44487;DHT22;30191;50.908;6.962;2022-12-18T08:54:38;-1.90;99.90
44487;DHT22;30191;50.908;6.962;2022-12-18T08:57:03;-1.80;99.90
44487;DHT22;30191;50.908;6.962;2022-12-18T08:59:29;-1.80;99.90
44487;DHT22;30191;50.908;6.962;2022-12-18T09:01:55;-1.70;99.90
44487;DHT22;30191;50.908;6.962;2022-12-18T09:04:21;-1.70;99.90
44487;DHT22;30191;50.908;6.962;2022-12-18T09:06:46;-1.60;99.90
44487;DHT22;30191;50.908;6.962;2022-12-18T09:09:12;-1.60;99.90
44487;DHT22;30191;50.908;6.962;2022-12-18T09:11:38;-1.60;99.90
44487;DHT22;30191;50.908;6.962;2022-12-18T09:14:04;-1.50;99.90
44487;DHT22;30191;50.908;6.962;2022-12-18T09:16:31;-1.50;99.90
44487;DHT22;30191;50.908;6.962;2022-12-18T09:18:57;-1.40;99.90
44487;DHT22;30191;50.908;6.962;2022-12-18T09:21:32;-1.40;99.90
44487;DHT22;30191;50.908;6.962;2022-12-18T09:23:58;-1.30;99.90
44487;DHT22;30191;50.908;6.962;2022-12-18T09:26:25;-1.20;99.90
44487;DHT22;30191;50.908;6.962;2022-12-18T09:28:51;-1.20;99.90
44487;DHT22;30191;50.908;6.962;2022-12-18T09:31:20;-1.20;99.90
44487;DHT22;30191;50.908;6.962;2022-12-18T09:33:46;-1.10;99.90
44487;DHT22;30191;50.908;6.962;2022-12-18T09:36:14;-1.10;99.90
44487;DHT22;30191;50.908;6.962;2022-12-18T09:38:40;-1.00;99.90
44487;DHT22;30191;50.908;6.962;2022-12-18T09:43:50;-0.90;99.90
44487;DHT22;30191;50.908;6.962;2022-12-18T09:46:23;-0.80;99.90
44487;DHT22;30191;50.908;6.962;2022-12-18T09:48:52;-0.70;99.90
44487;DHT22;30191;50.908;6.962;2022-12-18T09:51:26;-0.70;99.90
44487;DHT22;30191;50.908;6.962;2022-12-18T09:53:57;-0.60;99.90
44487;DHT22;30191;50.908;6.962;2022-12-18T09:56:28;-0.60;99.90
44487;DHT22;30191;50.908;6.962;2022-12-18T09:59:01;-0.50;99.90
44487;DHT22;30191;50.908;6.962;2022-12-18T10:01:28;-0.40;99.90
44487;DHT22;30191;50.908;6.962;2022-12-18T10:03:55;-0.40;99.90
44487;DHT22;30191;50.908;6.962;2022-12-18T10:12:22;-0.30;99.90
44487;DHT22;30191;50.908;6.962;2022-12-18T10:15:06;-0.20;99.90
44487;DHT22;30191;50.908;6.962;2022-12-18T10:20:17;-0.10;99.90
44487;DHT22;30191;50.908;6.962;2022-12-18T10:26:03;0.00;99.90
44487;DHT22;30191;50.908;6.962;2022-12-18T10:28:34;0.10;99.90
44487;DHT22;30191;50.908;6.962;2022-12-18T10:31:01;0.10;99.90
44487;DHT22;30191;50.908;6.962;2022-12-18T10:33:30;0.20;99.90
44487;DHT22;30191;50.908;6.962;2022-12-18T10:35:56;0.20;99.90
44487;DHT22;30191;50.908;6.962;2022-12-18T10:38:30;0.20;99.90
44487;DHT22;30191;50.908;6.962;2022-12-18T10:41:02;0.20;99.90
44487;DHT22;30191;50.908;6.962;2022-12-18T10:43:46;0.40;99.90
44487;DHT22;30191;50.908;6.962;2022-12-18T10:46:15;0.40;99.90
44487;DHT22;30191;50.908;6.962;2022-12-18T10:51:30;0.50;99.90
44487;DHT22;30191;50.908;6.962;2022-12-18T10:54:03;0.60;99.90
44487;DHT22;30191;50.908;6.962;2022-12-18T10:56:32;0.60;99.90
44487;DHT22;30191;50.908;6.962;2022-12-18T10:59:04;0.60;99.90
44487;DHT22;30191;50.908;6.962;2022-12-18T11:04:23;0.70;99.90
44487;DHT22;30191;50.908;6.962;2022-12-18T11:07:00;0.80;99.90
44487;DHT22;30191;50.908;6.962;2022-12-18T11:09:28;0.90;99.90
44487;DHT22;30191;50.908;6.962;2022-12-18T11:11:56;0.90;99.90
44487;DHT22;30191;50.908;6.962;2022-12-18T11:16:52;1.00;99.90
44487;DHT22;30191;50.908;6.962;2022-12-18T11:19:33;1.00;99.90
44487;DHT22;30191;50.908;6.962;2022-12-18T11:22:00;1.00;99.90
44487;DHT22;30191;50.908;6.962;2022-12-18T11:24:31;1.10;99.90
44487;DHT22;30191;50.908;6.962;2022-12-18T11:27:00;1.10;99.90
44487;DHT22;30191;50.908;6.962;2022-12-18T11:29:34;1.10;99.90
44487;DHT22;30191;50.908;6.962;2022-12-18T11:32:43;1.10;99.90
44487;DHT22;30191;50.908;6.962;2022-12-18T11:37:59;1.10;99.90
44487;DHT22;30191;50.908;6.962;2022-12-18T11:40:36;1.10;99.90
44487;DHT22;30191;50.908;6.962;2022-12-18T11:43:13;1.10;99.90
44487;DHT22;30191;50.908;6.962;2022-12-18T11:46:11;1.10;99.90
44487;DHT22;30191;50.908;6.962;2022-12-18T11:48:54;1.10;99.90
44487;DHT22;30191;50.908;6.962;2022-12-18T11:51:33;1.20;99.90
44487;DHT22;30191;50.908;6.962;2022-12-18T11:54:01;1.20;99.90
44487;DHT22;30191;50.908;6.962;2022-12-18T11:56:36;1.20;99.90
44487;DHT22;30191;50.908;6.962;2022-12-18T12:08:11;1.20;99.90
44487;DHT22;30191;50.908;6.962;2022-12-18T12:19:29;1.10;99.90
44487;DHT22;30191;50.908;6.962;2022-12-18T12:22:24;1.10;99.90
44487;DHT22;30191;50.908;6.962;2022-12-18T12:25:15;1.10;99.90
44487;DHT22;30191;50.908;6.962;2022-12-18T12:28:06;1.10;99.90
44487;DHT22;30191;50.908;6.962;2022-12-18T12:33:34;1.10;99.90
44487;DHT22;30191;50.908;6.962;2022-12-18T12:36:22;1.10;99.90
44487;DHT22;30191;50.908;6.962;2022-12-18T12:38:57;1.10;99.90
44487;DHT22;30191;50.908;6.962;2022-12-18T12:41:27;1.20;99.90
44487;DHT22;30191;50.908;6.962;2022-12-18T12:44:19;1.20;99.90
44487;DHT22;30191;50.908;6.962;2022-12-18T12:46:48;1.20;99.90
44487;DHT22;30191;50.908;6.962;2022-12-18T12:49:18;1.20;99.90
44487;DHT22;30191;50.908;6.962;2022-12-18T12:51:49;1.10;99.90
44487;DHT22;30191;50.908;6.962;2022-12-18T12:54:23;1.20;99.90
44487;DHT22;30191;50.908;6.962;2022-12-18T13:02:18;1.20;99.90
44487;DHT22;30191;50.908;6.962;2022-12-18T13:04:52;1.30;99.90
44487;DHT22;30191;50.908;6.962;2022-12-18T13:07:45;1.30;99.90
44487;DHT22;30191;50.908;6.962;2022-12-18T13:10:24;1.30;99.90
44487;DHT22;30191;50.908;6.962;2022-12-18T13:17:48;1.30;99.90
44487;DHT22;30191;50.908;6.962;2022-12-18T13:20:15;1.30;99.90
44487;DHT22;30191;50.908;6.962;2022-12-18T13:22:48;1.30;99.90
44487;DHT22;30191;50.908;6.962;2022-12-18T13:25:44;1.30;99.90
44487;DHT22;30191;50.908;6.962;2022-12-18T13:28:12;1.30;99.90
44487;DHT22;30191;50.908;6.962;2022-12-18T13:33:36;1.40;99.90
44487;DHT22;30191;50.908;6.962;2022-12-18T13:41:43;1.30;99.90
44487;DHT22;30191;50.908;6.962;2022-12-18T13:46:50;1.30;99.90
44487;DHT22;30191;50.908;6.962;2022-12-18T13:52:01;1.30;99.90
44487;DHT22;30191;50.908;6.962;2022-12-18T13:54:37;1.40;99.90
44487;DHT22;30191;50.908;6.962;2022-12-18T13:57:05;1.40;99.90
44487;DHT22;30191;50.908;6.962;2022-12-18T13:59:36;1.40;99.90
44487;DHT22;30191;50.908;6.962;2022-12-18T14:02:22;1.40;99.90
44487;DHT22;30191;50.908;6.962;2022-12-18T14:04:49;1.40;99.90
44487;DHT22;30191;50.908;6.962;2022-12-18T14:09:54;1.40;99.90
44487;DHT22;30191;50.908;6.962;2022-12-18T14:12:27;1.40;99.90
44487;DHT22;30191;50.908;6.962;2022-12-18T14:15:33;1.40;99.90
44487;DHT22;30191;50.908;6.962;2022-12-18T14:20:59;1.30;99.90
44487;DHT22;30191;50.908;6.962;2022-12-18T14:23:38;1.30;99.90
44487;DHT22;30191;50.908;6.962;2022-12-18T14:28:46;1.30;99.90
44487;DHT22;30191;50.908;6.962;2022-12-18T14:31:19;1.30;99.90
44487;DHT22;30191;50.908;6.962;2022-12-18T14:33:45;1.20;99.90
44487;DHT22;30191;50.908;6.962;2022-12-18T14:36:36;1.20;99.90
44487;DHT22;30191;50.908;6.962;2022-12-18T14:39:00;1.20;99.90
44487;DHT22;30191;50.908;6.962;2022-12-18T14:41:26;1.20;99.90
44487;DHT22;30191;50.908;6.962;2022-12-18T14:43:54;1.20;99.90
44487;DHT22;30191;50.908;6.962;2022-12-18T14:46:32;1.20;99.90
44487;DHT22;30191;50.908;6.962;2022-12-18T14:49:03;1.20;99.90
44487;DHT22;30191;50.908;6.962;2022-12-18T14:51:31;1.20;99.90
44487;DHT22;30191;50.908;6.962;2022-12-18T14:54:03;1.20;99.90
44487;DHT22;30191;50.908;6.962;2022-12-18T14:56:42;1.10;99.90
44487;DHT22;30191;50.908;6.962;2022-12-18T14:59:20;1.10;99.90
44487;DHT22;30191;50.908;6.962;2022-12-18T15:04:39;1.00;99.90
44487;DHT22;30191;50.908;6.962;2022-12-18T15:07:14;1.00;99.90
44487;DHT22;30191;50.908;6.962;2022-12-18T15:09:42;1.00;99.90
44487;DHT22;30191;50.908;6.962;2022-12-18T15:12:33;1.00;99.90
44487;DHT22;30191;50.908;6.962;2022-12-18T15:14:59;1.00;99.90
44487;DHT22;30191;50.908;6.962;2022-12-18T15:17:24;1.00;99.90
44487;DHT22;30191;50.908;6.962;2022-12-18T15:19:53;1.00;99.90
44487;DHT22;30191;50.908;6.962;2022-12-18T15:22:26;1.00;99.90
44487;DHT22;30191;50.908;6.962;2022-12-18T15:24:54;1.00;99.90
44487;DHT22;30191;50.908;6.962;2022-12-18T15:32:34;0.90;99.90
44487;DHT22;30191;50.908;6.962;2022-12-18T15:37:35;0.90;99.90
44487;DHT22;30191;50.908;6.962;2022-12-18T15:40:00;0.80;99.90
44487;DHT22;30191;50.908;6.962;2022-12-18T15:42:28;0.90;99.90
44487;DHT22;30191;50.908;6.962;2022-12-18T15:45:13;0.80;99.90
44487;DHT22;30191;50.908;6.962;2022-12-18T15:47:39;0.80;99.90
44487;DHT22;30191;50.908;6.962;2022-12-18T15:50:05;0.80;99.90
44487;DHT22;30191;50.908;6.962;2022-12-18T15:52:42;0.80;99.90
44487;DHT22;30191;50.908;6.962;2022-12-18T15:55:16;0.80;99.90
44487;DHT22;30191;50.908;6.962;2022-12-18T15:58:01;0.80;99.90
44487;DHT22;30191;50.908;6.962;2022-12-18T16:00:27;0.80;99.90
44487;DHT22;30191;50.908;6.962;2022-12-18T16:02:53;0.80;99.90
44487;DHT22;30191;50.908;6.962;2022-12-18T16:05:20;0.80;99.90
44487;DHT22;30191;50.908;6.962;2022-12-18T16:07:47;0.80;99.90
44487;DHT22;30191;50.908;6.962;2022-12-18T16:10:14;0.80;99.90
44487;DHT22;30191;50.908;6.962;2022-12-18T16:12:41;0.80;99.90
44487;DHT22;30191;50.908;6.962;2022-12-18T16:15:07;0.70;99.90
44487;DHT22;30191;50.908;6.962;2022-12-18T16:17:33;0.80;99.90
44487;DHT22;30191;50.908;6.962;2022-12-18T16:19:59;0.80;99.90
44487;DHT22;30191;50.908;6.962;2022-12-18T16:22:27;0.80;99.90
44487;DHT22;30191;50.908;6.962;2022-12-18T16:24:54;0.80;99.90
44487;DHT22;30191;50.908;6.962;2022-12-18T16:27:23;0.80;99.90
44487;DHT22;30191;50.908;6.962;2022-12-18T16:29:49;0.80;99.90
44487;DHT22;30191;50.908;6.962;2022-12-18T16:32:20;0.80;99.90
44487;DHT22;30191;50.908;6.962;2022-12-18T16:34:46;0.80;99.90
44487;DHT22;30191;50.908;6.962;2022-12-18T16:37:13;0.80;99.90
44487;DHT22;30191;50.908;6.962;2022-12-18T16:39:40;0.80;99.90
44487;DHT22;30191;50.908;6.962;2022-12-18T16:42:17;0.80;99.90
44487;DHT22;30191;50.908;6.962;2022-12-18T16:44:45;0.80;99.90
44487;DHT22;30191;50.908;6.962;2022-12-18T16:47:11;0.80;99.90
44487;DHT22;30191;50.908;6.962;2022-12-18T16:49:37;0.80;99.90
44487;DHT22;30191;50.908;6.962;2022-12-18T16:52:04;0.80;99.90
44487;DHT22;30191;50.908;6.962;2022-12-18T16:54:30;0.80;99.90
44487;DHT22;30191;50.908;6.962;2022-12-18T16:56:58;0.80;99.90
44487;DHT22;30191;50.908;6.962;2022-12-18T16:59:25;0.80;99.90
44487;DHT22;30191;50.908;6.962;2022-12-18T17:01:51;0.80;99.90
44487;DHT22;30191;50.908;6.962;2022-12-18T17:04:17;0.70;99.90
44487;DHT22;30191;50.908;6.962;2022-12-18T17:06:44;0.70;99.90
44487;DHT22;30191;50.908;6.962;2022-12-18T17:09:12;0.80;99.90
44487;DHT22;30191;50.908;6.962;2022-12-18T17:11:41;0.80;99.90
44487;DHT22;30191;50.908;6.962;2022-12-18T17:14:13;0.80;99.90
44487;DHT22;30191;50.908;6.962;2022-12-18T17:16:39;0.80;99.90
44487;DHT22;30191;50.908;6.962;2022-12-18T17:19:04;0.80;99.90
44487;DHT22;30191;50.908;6.962;2022-12-18T17:21:30;0.80;99.90
44487;DHT22;30191;50.908;6.962;2022-12-18T17:23:59;0.80;99.90
44487;DHT22;30191;50.908;6.962;2022-12-18T17:26:25;0.80;99.90
44487;DHT22;30191;50.908;6.962;2022-12-18T17:28:50;0.80;99.90
44487;DHT22;30191;50.908;6.962;2022-12-18T17:31:20;0.80;99.90
44487;DHT22;30191;50.908;6.962;2022-12-18T17:33:47;0.80;99.90
44487;DHT22;30191;50.908;6.962;2022-12-18T17:36:13;0.80;99.90
44487;DHT22;30191;50.908;6.962;2022-12-18T17:38:43;0.80;99.90
44487;DHT22;30191;50.908;6.962;2022-12-18T17:41:14;0.80;99.90
44487;DHT22;30191;50.908;6.962;2022-12-18T17:43:39;0.80;99.90
44487;DHT22;30191;50.908;6.962;2022-12-18T17:46:11;0.80;99.90
44487;DHT22;30191;50.908;6.962;2022-12-18T17:48:37;0.80;99.90
44487;DHT22;30191;50.908;6.962;2022-12-18T17:51:06;0.70;99.90
44487;DHT22;30191;50.908;6.962;2022-12-18T17:53:32;0.80;99.90